Terminal Aerodrome Forecast
Issued by NWS

Home | Current Version | Previous Version | Text Only | Print | Product List | Glossary On
Versions: 1 2 3 4 5 6 7 8 9 10 11 12 13 14 15 16 17 18 19 20 21 22 23 24
000
FTUS42 KFFC 012100 AAA
TAFFTY
TAF AMD
KFTY 012113Z 0121/0218 VRB05KT P6SM SCT045 BKN070 BKN150
      TEMPO 0121/0124 VRB10G25KT 5SM TSRA BKN045CB
     FM020100 00000KT P6SM FEW060 SCT150 BKN250
     FM021400 29005KT P6SM SCT035 SCT150=

USA.gov is the U.S. government's official web portal to all federal, state and local government web resources and services.